sensor_id;sensor_type;location;lat;lon;timestamp;pressure;altitude;pressure_sealevel;temperature;humidity
28797;BME280;24974;54.444;18.560;2022-07-10T05:53:42;100923.97;;;14.23;77.70
28797;BME280;24974;54.444;18.560;2022-07-10T05:56:13;100931.75;;;14.38;77.37
28797;BME280;24974;54.444;18.560;2022-07-10T05:58:43;100926.72;;;14.32;77.08
28797;BME280;24974;54.444;18.560;2022-07-10T06:01:14;100935.84;;;14.32;76.72
28797;BME280;24974;54.444;18.560;2022-07-10T06:03:45;100939.75;;;14.31;76.57
28797;BME280;24974;54.444;18.560;2022-07-10T06:06:16;100939.06;;;14.34;76.88
28797;BME280;24974;54.444;18.560;2022-07-10T06:08:47;100941.00;;;14.42;76.85
28797;BME280;24974;54.444;18.560;2022-07-10T06:11:18;100946.41;;;14.39;77.30
28797;BME280;24974;54.444;18.560;2022-07-10T06:13:49;100945.72;;;14.50;77.17
28797;BME280;24974;54.444;18.560;2022-07-10T06:16:20;100937.44;;;14.50;76.91
28797;BME280;24974;54.444;18.560;2022-07-10T06:18:51;100942.13;;;14.59;77.17
28797;BME280;24974;54.444;18.560;2022-07-10T06:21:22;100946.00;;;14.66;76.87
28797;BME280;24974;54.444;18.560;2022-07-10T06:23:53;100937.97;;;14.82;76.25
28797;BME280;24974;54.444;18.560;2022-07-10T06:26:25;100927.66;;;15.00;75.44
28797;BME280;24974;54.444;18.560;2022-07-10T06:28:55;100920.41;;;15.16;75.13
28797;BME280;24974;54.444;18.560;2022-07-10T06:31:26;100937.91;;;15.29;73.94
28797;BME280;24974;54.444;18.560;2022-07-10T06:33:57;100924.03;;;15.58;73.85
28797;BME280;24974;54.444;18.560;2022-07-10T06:36:28;100928.31;;;15.77;73.05
28797;BME280;24974;54.444;18.560;2022-07-10T06:38:59;100929.03;;;15.86;72.43
28797;BME280;24974;54.444;18.560;2022-07-10T06:41:30;100924.13;;;15.71;72.18
28797;BME280;24974;54.444;18.560;2022-07-10T06:44:01;100927.09;;;15.65;72.75
28797;BME280;24974;54.444;18.560;2022-07-10T06:46:33;100928.84;;;15.70;72.95
28797;BME280;24974;54.444;18.560;2022-07-10T06:49:03;100923.91;;;15.76;72.30
28797;BME280;24974;54.444;18.560;2022-07-10T06:51:35;100915.09;;;15.94;71.97
28797;BME280;24974;54.444;18.560;2022-07-10T06:54:06;100920.56;;;16.03;71.67
28797;BME280;24974;54.444;18.560;2022-07-10T06:56:37;100918.78;;;16.19;71.70
28797;BME280;24974;54.444;18.560;2022-07-10T06:59:08;100917.50;;;16.62;69.64
28797;BME280;24974;54.444;18.560;2022-07-10T07:01:39;100925.34;;;16.48;69.11
28797;BME280;24974;54.444;18.560;2022-07-10T07:04:10;100932.22;;;16.30;69.72
28797;BME280;24974;54.444;18.560;2022-07-10T07:06:41;100927.06;;;16.40;69.58
28797;BME280;24974;54.444;18.560;2022-07-10T07:09:12;100917.41;;;16.26;69.61
28797;BME280;24974;54.444;18.560;2022-07-10T07:11:42;100919.47;;;16.16;70.18
28797;BME280;24974;54.444;18.560;2022-07-10T07:14:13;100923.22;;;16.33;70.64
28797;BME280;24974;54.444;18.560;2022-07-10T07:16:44;100922.25;;;16.62;69.89
28797;BME280;24974;54.444;18.560;2022-07-10T07:19:28;100913.06;;;16.37;68.82
28797;BME280;24974;54.444;18.560;2022-07-10T07:22:02;100902.66;;;16.79;67.84
28797;BME280;24974;54.444;18.560;2022-07-10T07:24:51;100917.91;;;16.97;68.02
28797;BME280;24974;54.444;18.560;2022-07-10T07:27:22;100910.81;;;17.24;67.14
28797;BME280;24974;54.444;18.560;2022-07-10T07:29:53;100912.13;;;16.90;66.97
28797;BME280;24974;54.444;18.560;2022-07-10T07:32:23;100914.91;;;17.02;66.93
28797;BME280;24974;54.444;18.560;2022-07-10T07:34:55;100912.66;;;17.45;66.35
28797;BME280;24974;54.444;18.560;2022-07-10T07:37:46;100915.47;;;17.32;65.78
28797;BME280;24974;54.444;18.560;2022-07-10T07:40:22;100916.53;;;17.03;66.43
28797;BME280;24974;54.444;18.560;2022-07-10T07:42:54;100919.41;;;17.19;66.52
28797;BME280;24974;54.444;18.560;2022-07-10T07:45:25;100927.25;;;17.29;66.83
28797;BME280;24974;54.444;18.560;2022-07-10T07:47:58;100930.03;;;17.42;66.13
28797;BME280;24974;54.444;18.560;2022-07-10T07:50:34;100928.16;;;17.46;64.96
28797;BME280;24974;54.444;18.560;2022-07-10T07:53:05;100943.53;;;17.55;62.02
28797;BME280;24974;54.444;18.560;2022-07-10T07:55:36;100928.78;;;17.15;62.94
28797;BME280;24974;54.444;18.560;2022-07-10T07:58:07;100936.75;;;16.92;64.72
28797;BME280;24974;54.444;18.560;2022-07-10T08:00:38;100946.81;;;16.39;67.98
28797;BME280;24974;54.444;18.560;2022-07-10T08:03:09;100940.63;;;15.67;70.56
28797;BME280;24974;54.444;18.560;2022-07-10T08:05:40;100946.97;;;15.38;72.85
28797;BME280;24974;54.444;18.560;2022-07-10T08:08:11;100951.72;;;14.99;75.14
28797;BME280;24974;54.444;18.560;2022-07-10T08:10:42;100961.34;;;15.02;75.43
28797;BME280;24974;54.444;18.560;2022-07-10T08:13:12;100945.44;;;14.90;76.06
28797;BME280;24974;54.444;18.560;2022-07-10T08:15:43;100955.00;;;15.01;75.80
28797;BME280;24974;54.444;18.560;2022-07-10T08:18:14;100953.13;;;15.14;75.39
28797;BME280;24974;54.444;18.560;2022-07-10T08:20:45;100946.75;;;15.22;75.55
28797;BME280;24974;54.444;18.560;2022-07-10T08:23:16;100939.06;;;15.28;75.95
28797;BME280;24974;54.444;18.560;2022-07-10T08:25:47;100934.09;;;15.42;75.97
28797;BME280;24974;54.444;18.560;2022-07-10T08:28:18;100930.63;;;15.45;75.51
28797;BME280;24974;54.444;18.560;2022-07-10T08:30:49;100930.78;;;15.49;75.23
28797;BME280;24974;54.444;18.560;2022-07-10T08:33:19;100927.41;;;15.43;75.45
28797;BME280;24974;54.444;18.560;2022-07-10T08:35:51;100932.78;;;15.69;75.26
28797;BME280;24974;54.444;18.560;2022-07-10T08:38:21;100935.41;;;15.86;74.44
28797;BME280;24974;54.444;18.560;2022-07-10T08:40:54;100938.41;;;16.14;74.02
28797;BME280;24974;54.444;18.560;2022-07-10T08:43:28;100939.31;;;16.39;73.30
28797;BME280;24974;54.444;18.560;2022-07-10T08:45:59;100930.84;;;16.69;70.93
28797;BME280;24974;54.444;18.560;2022-07-10T08:48:32;100937.78;;;16.75;70.86
28797;BME280;24974;54.444;18.560;2022-07-10T08:51:07;100939.19;;;17.30;68.21
28797;BME280;24974;54.444;18.560;2022-07-10T08:53:43;100937.91;;;18.20;66.14
28797;BME280;24974;54.444;18.560;2022-07-10T08:56:15;100950.72;;;18.53;64.98
28797;BME280;24974;54.444;18.560;2022-07-10T08:58:46;100938.50;;;18.85;62.12
28797;BME280;24974;54.444;18.560;2022-07-10T09:01:18;100938.16;;;18.59;61.91
28797;BME280;24974;54.444;18.560;2022-07-10T09:03:53;100938.81;;;18.24;61.97
28797;BME280;24974;54.444;18.560;2022-07-10T09:06:24;100931.25;;;17.69;62.71
28797;BME280;24974;54.444;18.560;2022-07-10T09:09:08;100942.50;;;17.60;62.99
28797;BME280;24974;54.444;18.560;2022-07-10T09:11:41;100940.06;;;17.71;64.24
28797;BME280;24974;54.444;18.560;2022-07-10T09:14:16;100930.25;;;18.01;61.81
28797;BME280;24974;54.444;18.560;2022-07-10T09:16:50;100931.44;;;18.60;61.03
28797;BME280;24974;54.444;18.560;2022-07-10T09:19:25;100936.84;;;18.68;60.92
28797;BME280;24974;54.444;18.560;2022-07-10T09:22:11;100935.19;;;18.52;60.96
28797;BME280;24974;54.444;18.560;2022-07-10T09:24:45;100921.59;;;18.78;59.05
28797;BME280;24974;54.444;18.560;2022-07-10T09:27:16;100933.81;;;18.89;58.48
28797;BME280;24974;54.444;18.560;2022-07-10T09:29:49;100921.69;;;19.33;56.90
28797;BME280;24974;54.444;18.560;2022-07-10T09:32:24;100926.59;;;19.90;54.72
28797;BME280;24974;54.444;18.560;2022-07-10T09:34:58;100916.00;;;19.25;55.25
28797;BME280;24974;54.444;18.560;2022-07-10T09:37:47;100938.38;;;18.97;56.00
28797;BME280;24974;54.444;18.560;2022-07-10T09:40:19;100933.00;;;18.73;56.63
28797;BME280;24974;54.444;18.560;2022-07-10T09:42:49;100933.06;;;18.61;57.96
28797;BME280;24974;54.444;18.560;2022-07-10T09:45:21;100933.50;;;18.63;56.54
28797;BME280;24974;54.444;18.560;2022-07-10T09:47:59;100938.31;;;18.94;55.38
28797;BME280;24974;54.444;18.560;2022-07-10T09:50:35;100936.91;;;19.35;53.86
28797;BME280;24974;54.444;18.560;2022-07-10T09:53:08;100932.09;;;19.51;52.12
28797;BME280;24974;54.444;18.560;2022-07-10T09:55:44;100939.88;;;20.16;50.53
28797;BME280;24974;54.444;18.560;2022-07-10T09:58:16;100941.41;;;19.94;51.30
28797;BME280;24974;54.444;18.560;2022-07-10T10:00:48;100941.09;;;19.80;51.70
28797;BME280;24974;54.444;18.560;2022-07-10T10:03:21;100939.41;;;20.76;50.40
28797;BME280;24974;54.444;18.560;2022-07-10T10:05:55;100942.00;;;20.65;48.28
28797;BME280;24974;54.444;18.560;2022-07-10T10:08:33;100949.28;;;20.08;46.94
28797;BME280;24974;54.444;18.560;2022-07-10T10:11:07;100957.44;;;19.97;49.38
28797;BME280;24974;54.444;18.560;2022-07-10T10:13:38;100956.66;;;20.39;48.79
28797;BME280;24974;54.444;18.560;2022-07-10T10:16:09;100966.34;;;20.87;48.38
28797;BME280;24974;54.444;18.560;2022-07-10T10:18:42;100954.84;;;21.15;46.57
28797;BME280;24974;54.444;18.560;2022-07-10T10:21:32;100966.78;;;21.12;46.94
28797;BME280;24974;54.444;18.560;2022-07-10T10:24:04;100955.75;;;21.23;45.72
28797;BME280;24974;54.444;18.560;2022-07-10T10:26:37;100964.56;;;21.25;43.69
28797;BME280;24974;54.444;18.560;2022-07-10T10:29:08;100969.66;;;20.70;44.90
28797;BME280;24974;54.444;18.560;2022-07-10T10:31:41;100967.25;;;20.49;45.38
28797;BME280;24974;54.444;18.560;2022-07-10T10:34:13;100957.84;;;21.03;45.13
28797;BME280;24974;54.444;18.560;2022-07-10T10:36:47;100974.34;;;20.89;45.62
28797;BME280;24974;54.444;18.560;2022-07-10T10:39:19;100965.47;;;20.83;45.61
28797;BME280;24974;54.444;18.560;2022-07-10T10:41:52;100960.31;;;20.43;46.27
28797;BME280;24974;54.444;18.560;2022-07-10T10:44:25;100965.19;;;20.27;46.96
28797;BME280;24974;54.444;18.560;2022-07-10T10:46:58;100969.09;;;20.03;47.77
28797;BME280;24974;54.444;18.560;2022-07-10T10:52:23;100967.25;;;19.91;46.74
28797;BME280;24974;54.444;18.560;2022-07-10T11:00:04;100965.72;;;20.32;46.26
28797;BME280;24974;54.444;18.560;2022-07-10T11:02:39;100974.03;;;20.71;47.13
28797;BME280;24974;54.444;18.560;2022-07-10T11:07:57;100974.44;;;20.50;46.99
28797;BME280;24974;54.444;18.560;2022-07-10T11:10:39;100977.41;;;20.80;45.63
28797;BME280;24974;54.444;18.560;2022-07-10T11:18:21;100984.44;;;20.51;46.76
28797;BME280;24974;54.444;18.560;2022-07-10T11:21:01;100980.03;;;20.31;46.65
28797;BME280;24974;54.444;18.560;2022-07-10T11:29:04;100985.44;;;19.85;47.17
28797;BME280;24974;54.444;18.560;2022-07-10T11:31:38;100978.56;;;19.98;46.70
28797;BME280;24974;54.444;18.560;2022-07-10T11:34:14;100980.56;;;19.98;47.02
28797;BME280;24974;54.444;18.560;2022-07-10T11:36:47;100977.69;;;20.14;47.48
28797;BME280;24974;54.444;18.560;2022-07-10T11:39:18;100971.69;;;21.19;45.49
28797;BME280;24974;54.444;18.560;2022-07-10T11:41:49;100968.19;;;22.79;42.41
28797;BME280;24974;54.444;18.560;2022-07-10T11:44:19;100967.50;;;22.15;43.88
28797;BME280;24974;54.444;18.560;2022-07-10T11:46:51;100981.44;;;21.29;45.77
28797;BME280;24974;54.444;18.560;2022-07-10T11:49:25;100987.00;;;20.60;46.14
28797;BME280;24974;54.444;18.560;2022-07-10T11:52:05;100987.31;;;20.16;47.38
28797;BME280;24974;54.444;18.560;2022-07-10T11:54:36;100984.75;;;20.07;48.87
28797;BME280;24974;54.444;18.560;2022-07-10T11:57:09;100975.56;;;21.37;44.85
28797;BME280;24974;54.444;18.560;2022-07-10T11:59:40;100982.16;;;22.76;42.49
28797;BME280;24974;54.444;18.560;2022-07-10T12:02:10;100965.78;;;23.26;40.83
28797;BME280;24974;54.444;18.560;2022-07-10T12:04:41;100979.06;;;22.47;42.92
28797;BME280;24974;54.444;18.560;2022-07-10T12:07:13;100995.69;;;21.46;43.27
28797;BME280;24974;54.444;18.560;2022-07-10T12:09:52;100998.53;;;20.39;44.61
28797;BME280;24974;54.444;18.560;2022-07-10T12:12:23;100993.56;;;21.17;43.62
28797;BME280;24974;54.444;18.560;2022-07-10T12:14:54;100981.81;;;22.84;41.20
28797;BME280;24974;54.444;18.560;2022-07-10T12:17:25;100978.66;;;23.92;39.36
28797;BME280;24974;54.444;18.560;2022-07-10T12:19:56;100969.41;;;23.85;39.98
28797;BME280;24974;54.444;18.560;2022-07-10T12:22:27;100977.47;;;23.93;38.79
28797;BME280;24974;54.444;18.560;2022-07-10T12:24:58;100961.88;;;23.99;37.43
28797;BME280;24974;54.444;18.560;2022-07-10T12:27:42;100975.81;;;23.85;38.82
28797;BME280;24974;54.444;18.560;2022-07-10T12:30:13;100982.19;;;22.79;40.99
28797;BME280;24974;54.444;18.560;2022-07-10T12:32:44;100987.19;;;21.96;42.02
28797;BME280;24974;54.444;18.560;2022-07-10T12:35:15;100995.94;;;22.21;41.65
28797;BME280;24974;54.444;18.560;2022-07-10T12:37:49;101009.75;;;22.74;40.12
28797;BME280;24974;54.444;18.560;2022-07-10T12:40:33;101012.97;;;21.52;43.84
28797;BME280;24974;54.444;18.560;2022-07-10T12:43:04;101018.06;;;20.78;44.93
28797;BME280;24974;54.444;18.560;2022-07-10T12:45:37;101016.63;;;20.45;45.92
28797;BME280;24974;54.444;18.560;2022-07-10T12:48:21;101029.38;;;20.07;46.64
28797;BME280;24974;54.444;18.560;2022-07-10T12:50:52;101022.41;;;19.98;47.46
28797;BME280;24974;54.444;18.560;2022-07-10T12:53:23;101026.00;;;19.98;47.93
28797;BME280;24974;54.444;18.560;2022-07-10T12:55:55;101023.72;;;19.69;48.18
28797;BME280;24974;54.444;18.560;2022-07-10T12:58:26;101014.03;;;19.63;49.47
28797;BME280;24974;54.444;18.560;2022-07-10T13:00:57;101028.94;;;19.70;49.93
28797;BME280;24974;54.444;18.560;2022-07-10T13:03:28;101017.97;;;19.97;49.68
28797;BME280;24974;54.444;18.560;2022-07-10T13:06:00;101017.16;;;21.95;45.39
28797;BME280;24974;54.444;18.560;2022-07-10T13:08:44;101010.16;;;21.52;45.30
28797;BME280;24974;54.444;18.560;2022-07-10T13:11:15;101011.59;;;21.19;45.68
28797;BME280;24974;54.444;18.560;2022-07-10T13:13:46;101027.94;;;21.17;46.48
28797;BME280;24974;54.444;18.560;2022-07-10T13:16:17;101014.50;;;22.32;42.66
28797;BME280;24974;54.444;18.560;2022-07-10T13:18:48;101018.28;;;23.80;39.11
28797;BME280;24974;54.444;18.560;2022-07-10T13:21:19;101028.34;;;23.85;39.60
28797;BME280;24974;54.444;18.560;2022-07-10T13:23:50;101010.84;;;24.09;39.34
28797;BME280;24974;54.444;18.560;2022-07-10T13:26:21;101019.53;;;24.88;37.88
28797;BME280;24974;54.444;18.560;2022-07-10T13:28:52;101027.53;;;23.84;38.80
28797;BME280;24974;54.444;18.560;2022-07-10T13:31:23;101028.16;;;22.75;41.88
28797;BME280;24974;54.444;18.560;2022-07-10T13:33:54;101028.16;;;21.55;45.60
28797;BME280;24974;54.444;18.560;2022-07-10T13:36:25;101034.94;;;21.08;45.99
28797;BME280;24974;54.444;18.560;2022-07-10T13:38:55;101033.56;;;20.75;47.24
28797;BME280;24974;54.444;18.560;2022-07-10T13:41:26;101036.25;;;20.49;47.85
28797;BME280;24974;54.444;18.560;2022-07-10T13:43:57;101038.56;;;21.54;45.17
28797;BME280;24974;54.444;18.560;2022-07-10T13:46:28;101034.75;;;23.34;41.42
28797;BME280;24974;54.444;18.560;2022-07-10T13:48:59;101034.44;;;22.01;42.75
28797;BME280;24974;54.444;18.560;2022-07-10T13:51:30;101034.06;;;21.49;43.94
28797;BME280;24974;54.444;18.560;2022-07-10T13:54:01;101045.41;;;21.11;45.00
28797;BME280;24974;54.444;18.560;2022-07-10T13:56:33;101042.81;;;20.79;44.98
28797;BME280;24974;54.444;18.560;2022-07-10T13:59:04;101038.88;;;20.61;46.17
28797;BME280;24974;54.444;18.560;2022-07-10T14:01:34;101037.81;;;20.88;44.10
28797;BME280;24974;54.444;18.560;2022-07-10T14:04:05;101033.91;;;21.39;44.08
28797;BME280;24974;54.444;18.560;2022-07-10T14:06:37;101044.78;;;22.91;40.86
28797;BME280;24974;54.444;18.560;2022-07-10T14:09:08;101049.94;;;21.95;42.29
28797;BME280;24974;54.444;18.560;2022-07-10T14:11:39;101033.16;;;21.19;43.18
28797;BME280;24974;54.444;18.560;2022-07-10T14:14:11;101046.56;;;20.67;45.51
28797;BME280;24974;54.444;18.560;2022-07-10T14:16:42;101052.56;;;21.31;44.20
28797;BME280;24974;54.444;18.560;2022-07-10T14:19:13;101046.44;;;22.95;41.41
28797;BME280;24974;54.444;18.560;2022-07-10T14:21:44;101050.13;;;23.51;44.08
28797;BME280;24974;54.444;18.560;2022-07-10T14:24:15;101047.81;;;22.45;48.60
28797;BME280;24974;54.444;18.560;2022-07-10T14:26:46;101049.00;;;21.11;51.90
28797;BME280;24974;54.444;18.560;2022-07-10T14:29:17;101064.31;;;20.56;53.56
28797;BME280;24974;54.444;18.560;2022-07-10T14:31:48;101061.53;;;20.01;55.23
28797;BME280;24974;54.444;18.560;2022-07-10T14:34:19;101068.69;;;19.83;55.67
28797;BME280;24974;54.444;18.560;2022-07-10T14:36:51;101068.97;;;19.62;55.62
28797;BME280;24974;54.444;18.560;2022-07-10T14:39:22;101077.72;;;19.61;54.10
28797;BME280;24974;54.444;18.560;2022-07-10T14:41:53;101081.53;;;19.56;54.14
28797;BME280;24974;54.444;18.560;2022-07-10T14:44:24;101091.88;;;19.55;54.48
28797;BME280;24974;54.444;18.560;2022-07-10T14:46:54;101087.66;;;19.46;54.00
28797;BME280;24974;54.444;18.560;2022-07-10T14:49:25;101085.69;;;19.62;53.79
28797;BME280;24974;54.444;18.560;2022-07-10T14:51:56;101089.38;;;19.35;53.84
28797;BME280;24974;54.444;18.560;2022-07-10T14:54:27;101081.28;;;19.45;49.51
28797;BME280;24974;54.444;18.560;2022-07-10T14:56:58;101094.13;;;19.18;43.62
28797;BME280;24974;54.444;18.560;2022-07-10T14:59:29;101100.56;;;19.07;44.38
28797;BME280;24974;54.444;18.560;2022-07-10T15:02:00;101101.03;;;18.93;47.88
28797;BME280;24974;54.444;18.560;2022-07-10T15:04:30;101107.56;;;19.76;47.43
28797;BME280;24974;54.444;18.560;2022-07-10T15:07:01;101100.91;;;20.35;47.07
28797;BME280;24974;54.444;18.560;2022-07-10T15:09:32;101097.03;;;20.98;46.72
28797;BME280;24974;54.444;18.560;2022-07-10T15:12:04;101100.47;;;21.30;46.26
28797;BME280;24974;54.444;18.560;2022-07-10T15:14:35;101107.13;;;21.44;46.54
28797;BME280;24974;54.444;18.560;2022-07-10T15:17:06;101114.56;;;21.37;47.58
28797;BME280;24974;54.444;18.560;2022-07-10T15:19:37;101113.59;;;20.67;49.51
28797;BME280;24974;54.444;18.560;2022-07-10T15:22:08;101118.91;;;20.18;51.44
28797;BME280;24974;54.444;18.560;2022-07-10T15:24:38;101126.53;;;19.86;53.05
28797;BME280;24974;54.444;18.560;2022-07-10T15:27:11;101121.50;;;19.76;54.20
28797;BME280;24974;54.444;18.560;2022-07-10T15:29:43;101117.63;;;19.33;55.47
28797;BME280;24974;54.444;18.560;2022-07-10T15:32:14;101123.81;;;19.26;55.11
28797;BME280;24974;54.444;18.560;2022-07-10T15:34:45;101128.91;;;19.40;55.43
28797;BME280;24974;54.444;18.560;2022-07-10T15:37:16;101127.59;;;19.34;56.68
28797;BME280;24974;54.444;18.560;2022-07-10T15:39:47;101133.75;;;19.12;56.67
28797;BME280;24974;54.444;18.560;2022-07-10T15:42:18;101135.28;;;18.81;57.59
28797;BME280;24974;54.444;18.560;2022-07-10T15:44:49;101132.75;;;18.76;57.35
28797;BME280;24974;54.444;18.560;2022-07-10T15:47:20;101137.50;;;18.76;57.80
28797;BME280;24974;54.444;18.560;2022-07-10T15:49:51;101138.47;;;18.55;57.88
28797;BME280;24974;54.444;18.560;2022-07-10T15:52:22;101143.22;;;18.67;57.71
28797;BME280;24974;54.444;18.560;2022-07-10T15:54:52;101146.66;;;18.76;57.87
28797;BME280;24974;54.444;18.560;2022-07-10T15:57:23;101143.59;;;19.37;55.76
28797;BME280;24974;54.444;18.560;2022-07-10T15:59:54;101139.94;;;19.05;57.18
28797;BME280;24974;54.444;18.560;2022-07-10T16:02:25;101140.63;;;18.86;58.25
28797;BME280;24974;54.444;18.560;2022-07-10T16:04:56;101148.31;;;18.77;58.11
28797;BME280;24974;54.444;18.560;2022-07-10T16:07:27;101143.56;;;18.78;57.61
28797;BME280;24974;54.444;18.560;2022-07-10T16:09:58;101144.84;;;18.68;58.12
28797;BME280;24974;54.444;18.560;2022-07-10T16:12:29;101142.56;;;18.45;59.20
28797;BME280;24974;54.444;18.560;2022-07-10T16:15:00;101139.56;;;18.38;58.79
28797;BME280;24974;54.444;18.560;2022-07-10T16:17:31;101144.28;;;18.50;57.75
28797;BME280;24974;54.444;18.560;2022-07-10T16:20:02;101148.41;;;19.68;54.38
28797;BME280;24974;54.444;18.560;2022-07-10T16:22:33;101142.59;;;20.08;53.62
28797;BME280;24974;54.444;18.560;2022-07-10T16:25:04;101148.91;;;20.40;53.65
28797;BME280;24974;54.444;18.560;2022-07-10T16:27:53;101149.78;;;20.80;52.26
28797;BME280;24974;54.444;18.560;2022-07-10T16:30:24;101155.72;;;20.24;53.33
28797;BME280;24974;54.444;18.560;2022-07-10T16:32:55;101147.00;;;21.22;51.08
28797;BME280;24974;54.444;18.560;2022-07-10T16:35:27;101154.63;;;21.90;49.23
28797;BME280;24974;54.444;18.560;2022-07-10T16:37:58;101161.00;;;22.14;48.22
28797;BME280;24974;54.444;18.560;2022-07-10T16:40:29;101149.19;;;22.54;47.09
28797;BME280;24974;54.444;18.560;2022-07-10T16:43:00;101147.34;;;22.95;45.97
28797;BME280;24974;54.444;18.560;2022-07-10T16:45:31;101145.63;;;23.24;45.62
28797;BME280;24974;54.444;18.560;2022-07-10T16:48:02;101144.84;;;23.24;45.96
28797;BME280;24974;54.444;18.560;2022-07-10T16:50:34;101146.31;;;23.10;46.10
28797;BME280;24974;54.444;18.560;2022-07-10T16:53:05;101148.16;;;22.69;46.16
28797;BME280;24974;54.444;18.560;2022-07-10T16:55:36;101151.75;;;21.87;48.66
28797;BME280;24974;54.444;18.560;2022-07-10T16:58:06;101162.47;;;21.16;51.09
28797;BME280;24974;54.444;18.560;2022-07-10T17:00:37;101156.66;;;21.05;51.21
28797;BME280;24974;54.444;18.560;2022-07-10T17:03:08;101157.94;;;20.88;51.85
28797;BME280;24974;54.444;18.560;2022-07-10T17:05:39;101159.97;;;20.37;52.84
28797;BME280;24974;54.444;18.560;2022-07-10T17:08:10;101156.84;;;19.88;53.71
28797;BME280;24974;54.444;18.560;2022-07-10T17:10:43;101156.84;;;19.72;54.41
28797;BME280;24974;54.444;18.560;2022-07-10T17:13:14;101163.16;;;19.41;54.30
28797;BME280;24974;54.444;18.560;2022-07-10T17:15:45;101165.88;;;19.37;54.77
28797;BME280;24974;54.444;18.560;2022-07-10T17:18:16;101158.09;;;19.15;55.37
28797;BME280;24974;54.444;18.560;2022-07-10T17:20:47;101161.94;;;18.94;54.77
28797;BME280;24974;54.444;18.560;2022-07-10T17:23:18;101148.84;;;18.83;55.29
28797;BME280;24974;54.444;18.560;2022-07-10T17:25:49;101150.88;;;18.70;56.28
28797;BME280;24974;54.444;18.560;2022-07-10T17:28:20;101153.34;;;18.47;57.05
28797;BME280;24974;54.444;18.560;2022-07-10T17:30:51;101155.56;;;18.41;56.86
28797;BME280;24974;54.444;18.560;2022-07-10T17:33:22;101159.88;;;18.27;57.33
28797;BME280;24974;54.444;18.560;2022-07-10T17:35:53;101165.22;;;18.20;57.75
28797;BME280;24974;54.444;18.560;2022-07-10T17:38:24;101168.94;;;17.99;59.17
28797;BME280;24974;54.444;18.560;2022-07-10T17:40:55;101150.16;;;17.96;59.89
28797;BME280;24974;54.444;18.560;2022-07-10T17:43:26;101153.88;;;17.88;59.13
28797;BME280;24974;54.444;18.560;2022-07-10T17:45:57;101154.59;;;17.73;59.18
28797;BME280;24974;54.444;18.560;2022-07-10T17:48:28;101157.38;;;17.73;59.40
28797;BME280;24974;54.444;18.560;2022-07-10T17:51:00;101174.09;;;17.64;59.89
28797;BME280;24974;54.444;18.560;2022-07-10T17:53:31;101157.38;;;17.73;59.27
28797;BME280;24974;54.444;18.560;2022-07-10T17:56:02;101160.19;;;17.64;60.62
28797;BME280;24974;54.444;18.560;2022-07-10T17:58:33;101176.88;;;17.64;59.73
28797;BME280;24974;54.444;18.560;2022-07-10T18:01:04;101173.41;;;17.67;59.45
28797;BME280;24974;54.444;18.560;2022-07-10T18:03:35;101175.75;;;17.65;59.59
28797;BME280;24974;54.444;18.560;2022-07-10T18:06:05;101171.09;;;17.69;59.39
28797;BME280;24974;54.444;18.560;2022-07-10T18:08:36;101167.78;;;17.76;59.14
28797;BME280;24974;54.444;18.560;2022-07-10T18:11:07;101167.19;;;17.70;59.80
28797;BME280;24974;54.444;18.560;2022-07-10T18:13:38;101166.69;;;17.68;59.49
28797;BME280;24974;54.444;18.560;2022-07-10T18:16:09;101176.50;;;17.53;60.61
28797;BME280;24974;54.444;18.560;2022-07-10T18:18:42;101181.91;;;17.25;61.99
28797;BME280;24974;54.444;18.560;2022-07-10T18:21:13;101189.97;;;17.18;62.74
28797;BME280;24974;54.444;18.560;2022-07-10T18:23:45;101201.03;;;17.06;63.16
28797;BME280;24974;54.444;18.560;2022-07-10T18:26:16;101218.63;;;16.68;65.36
28797;BME280;24974;54.444;18.560;2022-07-10T18:28:47;101228.38;;;16.54;68.67
28797;BME280;24974;54.444;18.560;2022-07-10T18:31:17;101229.41;;;16.11;70.70
28797;BME280;24974;54.444;18.560;2022-07-10T18:33:48;101253.69;;;15.58;74.14
28797;BME280;24974;54.444;18.560;2022-07-10T18:36:38;101299.84;;;15.02;78.85
28797;BME280;24974;54.444;18.560;2022-07-10T18:39:09;101306.56;;;14.13;74.46
28797;BME280;24974;54.444;18.560;2022-07-10T18:41:40;101325.16;;;13.46;77.23
28797;BME280;24974;54.444;18.560;2022-07-10T18:44:11;101340.59;;;13.24;76.41
28797;BME280;24974;54.444;18.560;2022-07-10T18:46:42;101342.31;;;13.06;78.69
28797;BME280;24974;54.444;18.560;2022-07-10T18:49:13;101331.72;;;13.00;80.61
28797;BME280;24974;54.444;18.560;2022-07-10T18:51:44;101341.03;;;12.90;81.64
28797;BME280;24974;54.444;18.560;2022-07-10T18:54:15;101331.53;;;12.96;82.18
28797;BME280;24974;54.444;18.560;2022-07-10T18:56:46;101316.09;;;12.95;83.87
28797;BME280;24974;54.444;18.560;2022-07-10T18:59:17;101320.63;;;12.77;83.08
28797;BME280;24974;54.444;18.560;2022-07-10T19:01:47;101310.50;;;12.73;84.31
28797;BME280;24974;54.444;18.560;2022-07-10T19:04:18;101290.72;;;12.71;84.17
28797;BME280;24974;54.444;18.560;2022-07-10T19:06:49;101280.69;;;12.75;84.39
28797;BME280;24974;54.444;18.560;2022-07-10T19:09:20;101269.06;;;12.64;82.44
28797;BME280;24974;54.444;18.560;2022-07-10T19:11:51;101259.16;;;12.49;83.37
28797;BME280;24974;54.444;18.560;2022-07-10T19:14:23;101252.16;;;12.29;82.78
28797;BME280;24974;54.444;18.560;2022-07-10T19:16:54;101234.78;;;12.43;84.91
28797;BME280;24974;54.444;18.560;2022-07-10T19:19:25;101238.78;;;12.37;84.49